LGPA

New Paros Airport

Airport
ICAO code
LGPA
IATA Code
PAS
Summary
ICAO Region
EUR
ICAO Territory
Location

Parikia, Paros

Serving
Paros
Elevation
125 ft
Coordinates
37° 1' 15" N , 25° 6' 47" E
KCC
Metar
Observation
LGPA 272020Z 23014KT 9999 FEW020 16/13 Q1007
Station
Paros Community Airport
Date/Time
2023-03-27 20:20:00
Wind direction
230°
Wind speed
14 kts
Lowest cloud amount
few clouds
Temperature
16°C
Dew point
13°C
Humidity
82%
QNH
1007 hPa
Weather condition
n/a

Paros National Airport is the airport serving the island of Paros, Greece, in the Cyclades islands region. The airport is located in the southwestern part of the island, about 6 nm from the port of Parikia. It replaced the Old Paros National Airport on 25 July 2016.

Climatology

Warm mediterranean climate (Köppen climate classification Csa)

Airport map

Aerial View

SKYbrary Partners:

Safety knowledge contributed by: